createdAt,value
2023-04-22T00:01:14.819Z,8.85
2023-04-22T00:04:01.079Z,8.84
2023-04-22T00:06:47.221Z,8.83
2023-04-22T00:09:32.627Z,8.83
2023-04-22T00:12:17.996Z,8.81
2023-04-22T00:15:03.581Z,8.78
2023-04-22T00:17:49.395Z,8.77
2023-04-22T00:20:36.526Z,8.73
2023-04-22T00:23:21.915Z,8.74
2023-04-22T00:26:07.420Z,8.72
2023-04-22T00:28:52.731Z,8.71
2023-04-22T00:31:38.028Z,8.67
2023-04-22T00:34:23.245Z,8.66
2023-04-22T00:37:08.724Z,8.66
2023-04-22T00:39:54.421Z,8.68
2023-04-22T00:42:41.666Z,8.68
2023-04-22T00:45:27.350Z,8.68
2023-04-22T00:48:14.136Z,8.67
2023-04-22T00:50:59.307Z,8.66
2023-04-22T00:53:44.717Z,8.67
2023-04-22T00:56:31.863Z,8.65
2023-04-22T00:59:17.081Z,8.65
2023-04-22T01:02:04.024Z,8.68
2023-04-22T01:04:49.898Z,8.69
2023-04-22T01:07:36.425Z,8.71
2023-04-22T01:10:22.148Z,8.72
2023-04-22T01:13:07.782Z,8.71
2023-04-22T01:15:54.064Z,8.69
2023-04-22T01:18:39.659Z,8.68
2023-04-22T01:21:27.255Z,8.66
2023-04-22T01:24:13.211Z,8.65
2023-04-22T01:26:58.571Z,8.61
2023-04-22T01:29:44.353Z,8.59
2023-04-22T01:32:31.237Z,8.57
2023-04-22T01:35:16.732Z,8.57
2023-04-22T01:38:03.708Z,8.57
2023-04-22T01:40:49.061Z,8.56
2023-04-22T01:43:34.441Z,8.55
2023-04-22T01:46:21.236Z,8.56
2023-04-22T01:49:06.957Z,8.57
2023-04-22T01:51:52.365Z,8.59
2023-04-22T01:54:39.099Z,8.56
2023-04-22T01:57:24.517Z,8.56
2023-04-22T02:00:10.559Z,8.58
2023-04-22T02:02:59.155Z,8.58
2023-04-22T02:05:44.806Z,8.57
2023-04-22T02:08:31.755Z,8.56
2023-04-22T02:11:17.074Z,8.57
2023-04-22T02:14:02.470Z,8.56
2023-04-22T02:16:48.369Z,8.56
2023-04-22T02:19:35.396Z,8.53
2023-04-22T02:22:22.353Z,8.52
2023-04-22T02:25:11.093Z,8.54
2023-04-22T02:27:56.471Z,8.52
2023-04-22T02:30:42.427Z,8.52
2023-04-22T02:33:28.224Z,8.52
2023-04-22T02:36:13.739Z,8.53
2023-04-22T02:38:59.188Z,8.51
2023-04-22T02:41:44.476Z,8.50
2023-04-22T02:44:30.744Z,8.52
2023-04-22T02:47:16.944Z,8.52
2023-04-22T02:50:02.638Z,8.49
2023-04-22T02:52:48.184Z,8.50
2023-04-22T02:55:33.618Z,8.49
2023-04-22T02:58:19.513Z,8.50
2023-04-22T03:01:05.426Z,8.48
2023-04-22T03:03:51.079Z,8.46
2023-04-22T03:06:41.573Z,8.42
2023-04-22T03:09:27.502Z,8.43
2023-04-22T03:12:12.928Z,8.44
2023-04-22T03:14:58.297Z,8.43
2023-04-22T03:17:47.970Z,8.40
2023-04-22T03:20:35.215Z,8.40
2023-04-22T03:23:21.418Z,8.37
2023-04-22T03:26:06.844Z,8.34
2023-04-22T03:28:52.195Z,8.34
2023-04-22T03:31:37.823Z,8.35
2023-04-22T03:34:23.551Z,8.37
2023-04-22T03:37:09.685Z,8.35
2023-04-22T03:39:55.191Z,8.35
2023-04-22T03:42:41.087Z,8.33
2023-04-22T03:45:27.136Z,8.32
2023-04-22T03:48:29.183Z,8.30
2023-04-22T03:51:15.733Z,8.28
2023-04-22T03:54:01.567Z,8.24
2023-04-22T03:56:50.655Z,8.23
2023-04-22T03:59:37.901Z,8.24
2023-04-22T04:02:24.797Z,8.26
2023-04-22T04:05:11.570Z,8.26
2023-04-22T04:07:58.730Z,8.26
2023-04-22T04:10:44.112Z,8.23
2023-04-22T04:13:32.463Z,8.23
2023-04-22T04:16:34.891Z,8.25
2023-04-22T04:19:28.792Z,8.25
2023-04-22T04:22:15.122Z,8.24
2023-04-22T04:25:10.489Z,8.23
2023-04-22T04:28:00.016Z,8.24
2023-04-22T04:30:45.976Z,8.24
2023-04-22T04:33:32.690Z,8.24
2023-04-22T04:36:19.016Z,8.21
2023-04-22T04:39:04.996Z,8.20
2023-04-22T04:41:55.209Z,8.20
2023-04-22T04:44:41.848Z,8.18
2023-04-22T04:47:28.558Z,8.13
2023-04-22T04:50:24.518Z,8.09
2023-04-22T04:53:11.310Z,8.06
2023-04-22T04:55:59.473Z,8.04
2023-04-22T04:58:46.452Z,7.99
2023-04-22T05:01:43.989Z,7.96
2023-04-22T05:04:31.542Z,7.97
2023-04-22T05:07:17.307Z,7.96
2023-04-22T05:10:04.472Z,7.95
2023-04-22T05:12:51.697Z,7.94
2023-04-22T05:15:41.344Z,7.94
2023-04-22T05:18:26.936Z,7.95
2023-04-22T05:21:13.106Z,7.92
2023-04-22T05:23:59.297Z,7.93
2023-04-22T05:26:44.822Z,7.91
2023-04-22T05:29:35.699Z,7.90
2023-04-22T05:32:22.701Z,7.90
2023-04-22T05:35:09.353Z,7.92
2023-04-22T05:37:55.812Z,7.93
2023-04-22T05:40:41.489Z,7.95
2023-04-22T05:43:29.167Z,7.97
2023-04-22T05:46:21.372Z,7.99
2023-04-22T05:49:07.188Z,8.03
2023-04-22T05:52:11.426Z,8.07
2023-04-22T05:55:14.903Z,8.11
2023-04-22T05:58:00.244Z,8.15
2023-04-22T06:00:58.805Z,8.17
2023-04-22T06:03:59.846Z,8.18
2023-04-22T06:06:45.357Z,8.18
2023-04-22T06:09:32.169Z,8.18
2023-04-22T06:12:18.793Z,8.20
2023-04-22T06:15:05.316Z,8.21
2023-04-22T06:17:51.013Z,8.22
2023-04-22T06:20:36.982Z,8.24
2023-04-22T06:23:22.574Z,8.22
2023-04-22T06:26:08.054Z,8.21
2023-04-22T06:28:55.268Z,8.19
2023-04-22T06:31:40.804Z,8.18
2023-04-22T06:34:26.629Z,8.16
2023-04-22T06:37:12.072Z,8.19
2023-04-22T06:39:57.843Z,8.22
2023-04-22T06:43:03.388Z,8.22
2023-04-22T06:46:08.076Z,8.32
2023-04-22T06:49:13.811Z,8.45
2023-04-22T06:52:11.902Z,8.54
2023-04-22T06:54:57.851Z,8.61
2023-04-22T06:57:43.185Z,8.69
2023-04-22T07:00:29.205Z,8.77
2023-04-22T07:03:16.774Z,8.85
2023-04-22T07:06:02.533Z,8.86
2023-04-22T07:08:49.490Z,8.98
2023-04-22T07:11:34.946Z,9.12
2023-04-22T07:14:26.859Z,9.19
2023-04-22T07:17:12.567Z,9.27
2023-04-22T07:19:58.069Z,9.27
2023-04-22T07:22:43.294Z,9.30
2023-04-22T07:25:28.731Z,9.29
2023-04-22T07:28:14.339Z,9.22
2023-04-22T07:30:59.634Z,9.13
2023-04-22T07:33:45.007Z,8.89
2023-04-22T07:36:32.138Z,8.64
2023-04-22T07:39:18.079Z,8.57
2023-04-22T07:42:03.970Z,8.42
2023-04-22T07:44:49.503Z,8.32
2023-04-22T07:47:35.002Z,8.28
2023-04-22T07:50:20.216Z,8.26
2023-04-22T07:53:06.067Z,8.26
2023-04-22T07:55:51.735Z,8.28
2023-04-22T07:58:37.151Z,8.22
2023-04-22T08:01:22.525Z,8.21
2023-04-22T08:04:08.290Z,8.17
2023-04-22T08:06:54.959Z,8.09
2023-04-22T08:09:40.733Z,8.05
2023-04-22T08:12:26.320Z,8.02
2023-04-22T08:15:12.543Z,8.03
2023-04-22T08:17:58.158Z,8.02
2023-04-22T08:20:43.858Z,8.04
2023-04-22T08:23:29.362Z,8.04
2023-04-22T08:26:16.383Z,8.02
2023-04-22T08:29:01.606Z,8.04
2023-04-22T08:31:47.181Z,8.02
2023-04-22T08:34:32.636Z,8.02
2023-04-22T08:37:18.260Z,8.00
2023-04-22T08:40:04.974Z,7.94
2023-04-22T08:42:52.333Z,7.92
2023-04-22T08:45:39.785Z,7.92
2023-04-22T08:48:26.661Z,7.90
2023-04-22T08:51:12.435Z,7.91
2023-04-22T08:53:58.202Z,7.92
2023-04-22T08:56:45.560Z,7.86
2023-04-22T08:59:31.764Z,7.86
2023-04-22T09:02:20.664Z,7.83
2023-04-22T09:05:09.166Z,7.85
2023-04-22T09:07:55.389Z,7.85
2023-04-22T09:10:41.533Z,7.82
2023-04-22T09:13:27.688Z,7.78
2023-04-22T09:16:13.283Z,7.76
2023-04-22T09:18:59.090Z,7.76
2023-04-22T09:21:45.836Z,7.75
2023-04-22T09:24:32.695Z,7.74
2023-04-22T09:27:23.824Z,7.73
2023-04-22T09:30:10.188Z,7.76
2023-04-22T09:32:57.642Z,7.80
2023-04-22T09:35:43.842Z,7.79
2023-04-22T09:38:32.170Z,7.80
2023-04-22T09:41:17.550Z,7.80
2023-04-22T09:44:04.983Z,7.85
2023-04-22T09:46:51.356Z,7.90
2023-04-22T09:49:39.074Z,7.96
2023-04-22T09:52:27.146Z,8.04
2023-04-22T09:55:12.877Z,8.03
2023-04-22T09:57:58.879Z,8.04
2023-04-22T10:00:48.766Z,8.09
2023-04-22T10:03:34.294Z,8.14
2023-04-22T10:06:20.472Z,8.16
2023-04-22T10:09:09.300Z,8.16
2023-04-22T10:11:58.743Z,8.22
2023-04-22T10:14:44.418Z,8.23
2023-04-22T10:17:33.413Z,8.25
2023-04-22T10:20:20.091Z,8.30
2023-04-22T10:23:07.037Z,8.40
2023-04-22T10:25:56.763Z,8.50
2023-04-22T10:28:44.314Z,8.55
2023-04-22T10:31:29.704Z,8.65
2023-04-22T10:34:15.722Z,8.74
2023-04-22T10:37:06.540Z,8.79
2023-04-22T10:40:08.998Z,8.86
2023-04-22T10:43:03.467Z,8.99
2023-04-22T10:45:48.902Z,9.00
2023-04-22T10:48:50.756Z,9.04
2023-04-22T10:51:39.249Z,9.12
2023-04-22T10:54:37.008Z,9.20
2023-04-22T10:57:22.879Z,9.32
2023-04-22T11:00:20.426Z,9.42
2023-04-22T11:03:05.869Z,9.43
2023-04-22T11:06:16.139Z,9.41
2023-04-22T11:09:16.956Z,9.39
2023-04-22T11:12:39.440Z,9.15
2023-04-22T11:15:25.157Z,8.78
2023-04-22T11:18:14.596Z,8.37
2023-04-22T11:21:07.359Z,8.13
2023-04-22T11:23:53.655Z,7.98
2023-04-22T11:26:41.053Z,7.88
2023-04-22T11:29:26.821Z,7.78
2023-04-22T11:32:12.187Z,7.71
2023-04-22T11:34:58.200Z,7.63
2023-04-22T11:37:45.276Z,7.54
2023-04-22T11:40:35.165Z,7.43
2023-04-22T11:43:22.299Z,7.38
2023-04-22T11:46:08.822Z,7.35
2023-04-22T11:48:54.664Z,7.27
2023-04-22T11:52:00.193Z,7.27
2023-04-22T11:54:46.306Z,7.25
2023-04-22T11:57:36.465Z,7.24
2023-04-22T12:00:23.139Z,7.28
2023-04-22T12:03:18.064Z,7.29
2023-04-22T12:06:05.262Z,7.30
2023-04-22T12:08:50.551Z,7.34
2023-04-22T12:11:36.079Z,7.39
2023-04-22T12:14:21.648Z,7.36
2023-04-22T12:17:10.695Z,7.35
2023-04-22T12:19:56.226Z,7.34
2023-04-22T12:22:41.813Z,7.32
2023-04-22T12:25:27.628Z,7.34
2023-04-22T12:28:13.160Z,7.33
2023-04-22T12:30:58.878Z,7.30
2023-04-22T12:33:45.885Z,7.28
2023-04-22T12:36:32.578Z,7.31
2023-04-22T12:39:19.029Z,7.32
2023-04-22T12:42:05.970Z,7.32
2023-04-22T12:44:51.579Z,7.36
2023-04-22T12:47:37.174Z,7.39
2023-04-22T12:50:22.729Z,7.42
2023-04-22T12:53:08.586Z,7.45
2023-04-22T12:55:55.051Z,7.48
2023-04-22T12:58:40.324Z,7.52
2023-04-22T13:01:26.064Z,7.61
2023-04-22T13:04:11.637Z,7.71
2023-04-22T13:06:57.428Z,7.69
2023-04-22T13:09:43.367Z,7.70
2023-04-22T13:12:28.775Z,7.80
2023-04-22T13:15:14.518Z,7.89
2023-04-22T13:18:00.584Z,7.94
2023-04-22T13:20:46.369Z,8.05
2023-04-22T13:23:32.698Z,8.07
2023-04-22T13:26:18.945Z,8.15
2023-04-22T13:29:11.034Z,8.19
2023-04-22T13:31:56.452Z,8.22
2023-04-22T13:34:42.084Z,8.15
2023-04-22T13:37:27.464Z,8.06
2023-04-22T13:40:13.107Z,8.02
2023-04-22T13:42:58.788Z,7.95
2023-04-22T13:45:44.109Z,7.91
2023-04-22T13:48:30.151Z,7.89
2023-04-22T13:51:16.069Z,7.95
2023-04-22T13:54:01.614Z,7.91
2023-04-22T13:56:46.944Z,7.88
2023-04-22T13:59:32.182Z,7.90
2023-04-22T14:02:18.125Z,7.93
2023-04-22T14:05:04.227Z,7.97
2023-04-22T14:07:49.666Z,7.95
2023-04-22T14:10:35.417Z,7.94
2023-04-22T14:13:21.410Z,7.90
2023-04-22T14:16:12.000Z,7.93
2023-04-22T14:18:58.452Z,7.99
2023-04-22T14:21:43.822Z,8.02
2023-04-22T14:24:29.160Z,8.10
2023-04-22T14:27:14.959Z,8.13
2023-04-22T14:30:02.011Z,7.96
2023-04-22T14:32:47.705Z,7.82
2023-04-22T14:35:34.874Z,7.87
2023-04-22T14:38:21.528Z,7.89
2023-04-22T14:41:07.245Z,7.95
2023-04-22T14:43:52.722Z,8.00
2023-04-22T14:46:38.001Z,8.07
2023-04-22T14:49:23.440Z,8.13
2023-04-22T14:52:09.083Z,8.17
2023-04-22T14:54:54.579Z,8.22
2023-04-22T14:57:40.086Z,8.04
2023-04-22T15:00:26.830Z,8.00
2023-04-22T15:03:12.742Z,8.06
2023-04-22T15:05:58.992Z,8.10
2023-04-22T15:08:44.593Z,8.20
2023-04-22T15:11:30.507Z,8.28
2023-04-22T15:14:17.166Z,8.24
2023-04-22T15:17:05.501Z,8.26
2023-04-22T15:19:53.322Z,8.30
2023-04-22T15:22:42.410Z,8.33
2023-04-22T15:25:28.160Z,8.35
2023-04-22T15:28:14.301Z,8.34
2023-04-22T15:30:59.746Z,8.41
2023-04-22T15:33:45.111Z,8.43
2023-04-22T15:36:31.620Z,8.31
2023-04-22T15:39:17.164Z,8.25
2023-04-22T15:42:02.924Z,8.23
2023-04-22T15:44:48.297Z,8.22
2023-04-22T15:47:34.102Z,8.26
2023-04-22T15:50:23.342Z,8.35
2023-04-22T15:53:09.292Z,8.45
2023-04-22T15:55:54.574Z,8.56
2023-04-22T15:58:40.129Z,8.81
2023-04-22T16:01:25.543Z,9.07
2023-04-22T16:04:11.205Z,9.41
2023-04-22T16:06:57.523Z,9.90
2023-04-22T16:09:43.477Z,10.50
2023-04-22T16:12:29.256Z,10.99
2023-04-22T16:15:16.605Z,11.08
2023-04-22T16:18:03.171Z,11.11
2023-04-22T16:20:49.172Z,11.05
2023-04-22T16:23:34.862Z,11.28
2023-04-22T16:26:20.846Z,11.03
2023-04-22T16:29:06.332Z,11.06
2023-04-22T16:31:52.154Z,11.19
2023-04-22T16:34:38.345Z,11.21
2023-04-22T16:37:25.270Z,11.18
2023-04-22T16:40:10.818Z,11.15
2023-04-22T16:42:57.233Z,11.10
2023-04-22T16:45:42.511Z,10.84
2023-04-22T16:48:27.810Z,10.64
2023-04-22T16:51:13.155Z,10.38
2023-04-22T16:53:58.438Z,10.26
2023-04-22T16:56:43.804Z,10.11
2023-04-22T16:59:29.972Z,10.02
2023-04-22T17:02:15.498Z,9.99
2023-04-22T17:05:02.614Z,9.80
2023-04-22T17:07:47.973Z,9.72
2023-04-22T17:10:34.800Z,9.71
2023-04-22T17:13:20.187Z,9.65
2023-04-22T17:16:05.785Z,9.64
2023-04-22T17:18:51.307Z,9.45
2023-04-22T17:21:37.405Z,9.32
2023-04-22T17:24:24.271Z,9.19
2023-04-22T17:27:14.759Z,9.11
2023-04-22T17:30:00.339Z,9.07
2023-04-22T17:32:45.800Z,9.06
2023-04-22T17:35:31.224Z,8.96
2023-04-22T17:38:16.982Z,8.89
2023-04-22T17:41:02.678Z,8.82
2023-04-22T17:43:47.969Z,8.74
2023-04-22T17:46:33.336Z,8.66
2023-04-22T17:49:18.842Z,8.64
2023-04-22T17:52:04.246Z,8.58
2023-04-22T17:54:50.402Z,8.52
2023-04-22T17:57:36.628Z,8.47
2023-04-22T18:00:22.201Z,8.34
2023-04-22T18:03:07.912Z,8.26
2023-04-22T18:05:53.582Z,8.19
2023-04-22T18:08:38.928Z,8.14
2023-04-22T18:11:24.497Z,8.05
2023-04-22T18:14:10.718Z,7.96
2023-04-22T18:16:56.730Z,7.87
2023-04-22T18:19:44.110Z,7.82
2023-04-22T18:22:29.565Z,7.75
2023-04-22T18:25:15.564Z,7.68
2023-04-22T18:28:01.071Z,7.61
2023-04-22T18:30:46.974Z,7.57
2023-04-22T18:33:32.894Z,7.53
2023-04-22T18:36:18.675Z,7.54
2023-04-22T18:39:05.821Z,7.51
2023-04-22T18:41:52.012Z,7.52
2023-04-22T18:44:37.766Z,7.53
2023-04-22T18:47:23.440Z,7.52
2023-04-22T18:50:09.967Z,7.51
2023-04-22T18:52:55.202Z,7.47
2023-04-22T18:55:40.628Z,7.45
2023-04-22T18:58:27.009Z,7.42
2023-04-22T19:01:12.811Z,7.43
2023-04-22T19:04:01.712Z,7.41
2023-04-22T19:06:48.098Z,7.38
2023-04-22T19:09:33.436Z,7.33
2023-04-22T19:12:19.728Z,7.30
2023-04-22T19:15:06.260Z,7.25
2023-04-22T19:17:51.757Z,7.22
2023-04-22T19:20:37.512Z,7.17
2023-04-22T19:23:23.068Z,7.12
2023-04-22T19:26:11.621Z,7.08
2023-04-22T19:28:57.254Z,7.06
2023-04-22T19:31:46.352Z,7.04
2023-04-22T19:34:32.268Z,7.02
2023-04-22T19:37:18.625Z,7.03
2023-04-22T19:40:04.652Z,7.02
2023-04-22T19:42:50.351Z,7.01
2023-04-22T19:45:35.503Z,7.01
2023-04-22T19:48:21.464Z,6.99
2023-04-22T19:51:07.035Z,6.98
2023-04-22T19:53:54.457Z,6.95
2023-04-22T19:56:41.514Z,6.93
2023-04-22T19:59:31.205Z,6.91
2023-04-22T20:02:16.649Z,6.89
2023-04-22T20:05:05.663Z,6.85
2023-04-22T20:07:51.953Z,6.84
2023-04-22T20:10:38.309Z,6.80
2023-04-22T20:13:23.957Z,6.76
2023-04-22T20:16:10.712Z,6.74
2023-04-22T20:18:56.685Z,6.77
2023-04-22T20:21:43.551Z,6.73
2023-04-22T20:24:32.519Z,6.73
2023-04-22T20:27:18.821Z,6.73
2023-04-22T20:30:05.742Z,6.72
2023-04-22T20:32:51.677Z,6.71
2023-04-22T20:35:38.700Z,6.70
2023-04-22T20:38:25.326Z,6.68
2023-04-22T20:41:13.379Z,6.65
2023-04-22T20:43:58.703Z,6.63
2023-04-22T20:46:44.536Z,6.59
2023-04-22T20:49:29.960Z,6.56
2023-04-22T20:52:15.501Z,6.49
2023-04-22T20:55:01.325Z,6.43
2023-04-22T20:57:46.924Z,6.38
2023-04-22T21:00:32.796Z,6.33
2023-04-22T21:03:19.048Z,6.31
2023-04-22T21:06:05.717Z,6.25
2023-04-22T21:08:51.445Z,6.23
2023-04-22T21:11:37.206Z,6.20
2023-04-22T21:14:26.202Z,6.14
2023-04-22T21:17:25.281Z,6.13
2023-04-22T21:20:11.572Z,6.10
2023-04-22T21:22:58.060Z,6.05
2023-04-22T21:25:44.277Z,6.03
2023-04-22T21:28:30.393Z,6.01
2023-04-22T21:31:16.600Z,5.98
2023-04-22T21:34:04.677Z,5.95
2023-04-22T21:36:50.145Z,5.93
2023-04-22T21:39:36.405Z,5.95
2023-04-22T21:42:22.058Z,5.96
2023-04-22T21:45:08.011Z,5.96
2023-04-22T21:47:54.016Z,5.96
2023-04-22T21:50:39.504Z,5.96
2023-04-22T21:53:25.016Z,5.98
2023-04-22T21:56:11.161Z,5.96
2023-04-22T21:58:56.647Z,5.97
2023-04-22T22:01:42.454Z,5.98
2023-04-22T22:04:28.055Z,5.98
2023-04-22T22:07:14.812Z,5.98
2023-04-22T22:10:00.992Z,6.00
2023-04-22T22:12:47.523Z,6.04
2023-04-22T22:15:32.789Z,6.06
2023-04-22T22:18:18.366Z,6.08
2023-04-22T22:21:04.057Z,6.10
2023-04-22T22:23:49.891Z,6.12
2023-04-22T22:26:36.591Z,6.13
2023-04-22T22:29:21.938Z,6.14
2023-04-22T22:32:07.852Z,6.15
2023-04-22T22:34:53.591Z,6.16
2023-04-22T22:37:38.999Z,6.18
2023-04-22T22:40:24.476Z,6.21
2023-04-22T22:43:09.942Z,6.22
2023-04-22T22:45:55.835Z,6.23
2023-04-22T22:48:41.360Z,6.21
2023-04-22T22:51:29.931Z,6.17
2023-04-22T22:54:15.679Z,6.17
2023-04-22T22:57:01.757Z,6.17
2023-04-22T22:59:47.141Z,6.16
2023-04-22T23:02:32.760Z,6.15
2023-04-22T23:05:18.657Z,6.12
2023-04-22T23:08:04.445Z,6.12
2023-04-22T23:10:50.596Z,6.10
2023-04-22T23:13:36.072Z,6.08
2023-04-22T23:16:21.648Z,6.06
2023-04-22T23:19:07.545Z,6.01
2023-04-22T23:21:54.917Z,5.97
2023-04-22T23:24:40.805Z,5.95
2023-04-22T23:27:26.602Z,5.91
2023-04-22T23:30:12.832Z,5.86
2023-04-22T23:33:02.539Z,5.82
2023-04-22T23:35:47.863Z,5.80
2023-04-22T23:38:33.738Z,5.74
2023-04-22T23:41:19.867Z,5.70
2023-04-22T23:44:05.430Z,5.69
2023-04-22T23:46:51.006Z,5.69
2023-04-22T23:49:36.737Z,5.67
2023-04-22T23:52:22.987Z,5.64
2023-04-22T23:55:13.979Z,5.61
2023-04-22T23:57:59.380Z,5.63
